Terminal Aerodrome Forecast
Issued by NWS

Home | Current Version | Previous Version | Text Only | Print | Product List | Glossary On
Versions: 1 2 3 4 5 6 7 8 9 10 11 12 13 14 15 16 17 18 19
000
FTUS44 KEWX 041508 AAB
TAFSSF
TAF AMD
KSSF 041508Z 0415/0512 16005KT P6SM SCT025 BKN250
      TEMPO 0415/0417 BKN025
     FM041700 14010KT P6SM SCT040
     FM051000 16007KT P6SM BKN015=

USA.gov is the U.S. government's official web portal to all federal, state and local government web resources and services.